WetterOnline ( http://www.wetteronline.de )

Wetter aktuell Arkona

Aktuelles Wetter: Kap Arkona/Rügen (42m)

6-stündlich | Neueste Meldungen
Ortszeit Temperatur Wetter
Do, 15.11. 13:00 10.2° C wolkenlos
Do, 15.11. 7:00 8.2° C bedeckt
Do, 15.11. 1:00 7.7° C bedeckt
Mi, 14.11. 19:00 8.7° C bedeckt
Mi, 14.11. 13:00 10.2° C bedeckt
Mi, 14.11. 7:00 9.7° C bedeckt
Mi, 14.11. 1:00 10.0° C bewölkt
Di, 13.11. 19:00 9.5° C bedeckt
Ortszeit Temperatur Wetter
Do, 15.11. 14:00 10.1° C wolkenlos
Do, 15.11. 13:30 10.5° C wolkenlos
Do, 15.11. 13:20 10.5° C wolkenlos
Do, 15.11. 13:10 10.4° C wolkenlos
Do, 15.11. 13:00 10.2° C wolkenlos
Do, 15.11. 12:50 10.2° C wolkenlos
Do, 15.11. 12:30 10.1° C leicht bewölkt
Do, 15.11. 12:00 9.7° C leicht bewölkt
Do, 15.11. 11:30 9.6° C leicht bewölkt
Do, 15.11. 11:00 9.2° C wolkig
Do, 15.11. 10:30 8.8° C wolkig
Ortszeit Relative Feuchte Sichtweite
Do, 15.11. 13:00 81% 20 km
Do, 15.11. 7:00 95% 7 km
Do, 15.11. 1:00 96% 6 km
Mi, 14.11. 19:00 93% 7 km
Mi, 14.11. 13:00 92% 17 km
Mi, 14.11. 7:00 91% 25 km
Mi, 14.11. 1:00 89% 23 km
Di, 13.11. 19:00 93% 15 km
Ortszeit Relative Feuchte Sichtweite
Do, 15.11. 14:00 81% 21 km
Do, 15.11. 13:30 79% 20 km
Do, 15.11. 13:20 79% -
Do, 15.11. 13:10 79% -
Do, 15.11. 13:00 81% 20 km
Do, 15.11. 12:50 81% -
Do, 15.11. 12:30 84% 16 km
Do, 15.11. 12:00 86% 11 km
Do, 15.11. 11:30 87% 12 km
Do, 15.11. 11:00 90% 11 km
Do, 15.11. 10:30 92% 11 km
Ortszeit Niederschlagsmenge Niederschlagsart
Do, 15.11. 13:00 0.0 l/m2 in 6 Std. -
Do, 15.11. 7:00 0.1 l/m2 in 12 Std. Regen
Do, 15.11. 1:00 0.0 l/m2 in 6 Std. -
Mi, 14.11. 19:00 0.0 l/m2 in 12 Std. -
Mi, 14.11. 13:00 0.0 l/m2 in 6 Std. -
Mi, 14.11. 7:00 0.2 l/m2 in 12 Std. Regen
Mi, 14.11. 1:00 0.1 l/m2 in 6 Std. Regen
Di, 13.11. 19:00 1 l/m2 in 12 Std. Regen
Ortszeit Niederschlagsmenge Niederschlagsart
Do, 15.11. 14:00 0.0 l/m2 in 1 Std. -
Do, 15.11. 13:30 0.0 l/m2 in 1 Std. -
Do, 15.11. 13:20 keine Meldung -
Do, 15.11. 13:10 keine Meldung -
Do, 15.11. 13:00 0.0 l/m2 in 1 Std. -
Do, 15.11. 12:50 keine Meldung -
Do, 15.11. 12:30 0.0 l/m2 in 1 Std. -
Do, 15.11. 12:00 0.0 l/m2 in 1 Std. -
Do, 15.11. 11:30 0.0 l/m2 in 1 Std. -
Do, 15.11. 11:00 0.0 l/m2 in 1 Std. -
Do, 15.11. 10:30 0.0 l/m2 in 1 Std. -
Ortszeit Stärke Spitze Richtung
km/h Bft. km/h Grad Sektor
Do, 15.11. 13:00 18 3 29 180° S
Do, 15.11. 7:00 15 3 20 190° S
Do, 15.11. 1:00 14 3 25 200° S
Mi, 14.11. 19:00 14 3 36 220° SW
Mi, 14.11. 13:00 26 4 44 250° W
Mi, 14.11. 7:00 33 5 57 270° W
Mi, 14.11. 1:00 43 6 61 250° W
Di, 13.11. 19:00 31 5 44 240° SW
Ortszeit Stärke Spitze Richtung
km/h Bft. km/h Grad Sektor
Do, 15.11. 14:00 18 3 29 180° S
Do, 15.11. 13:30 19 3 28 180° S
Do, 15.11. 13:20 19 3 - 180° S
Do, 15.11. 13:10 18 3 - 180° S
Do, 15.11. 13:00 18 3 25 180° S
Do, 15.11. 12:50 18 3 - 180° S
Do, 15.11. 12:30 14 3 22 180° S
Do, 15.11. 12:00 18 3 29 180° S
Do, 15.11. 11:30 20 4 26 190° S
Do, 15.11. 11:00 18 3 22 180° S
Do, 15.11. 10:30 17 3 22 190° S
Ortszeit Untergrenze Bedeckung Gattung
total tief tief mittel hoch
Do, 15.11. 13:00 - 0/8 0/8 - - -
Do, 15.11. 7:00 1800 m 8/8 8/8 - - -
Do, 15.11. 1:00 2700 m 8/8 8/8 - - -
Mi, 14.11. 19:00 240 m 8/8 8/8 - - -
Mi, 14.11. 13:00 210 m 8/8 8/8 - - -
Mi, 14.11. 7:00 270 m 8/8 8/8 - - -
Mi, 14.11. 1:00 510 m 7/8 7/8 - - -
Di, 13.11. 19:00 270 m 8/8 8/8 - - -
Ortszeit Bedeckungsgrad in Achtel und Wolkenuntergrenze
Do, 15.11. 14:00 keine Wolken
Do, 15.11. 13:30 keine Wolken
Do, 15.11. 13:20 keine Wolken
Do, 15.11. 13:10 keine Wolken
Do, 15.11. 13:00 keine Wolken
Do, 15.11. 12:50 keine Wolken
Do, 15.11. 12:30 2(1320m)
Do, 15.11. 12:00 1(1320m) 4(10500m)
Do, 15.11. 11:30 1(1350m) 3(10500m)
Do, 15.11. 11:00 2(1350m) 3(1800m)
Do, 15.11. 10:30 7(1800m) 4(1800m)
Ortszeit Luftdruck NN (hPa) Tendenz (hPa in 3 Std.)
Do, 15.11. 13:00 1031 + 0,2
Do, 15.11. 7:00 1030 + 0,5
Do, 15.11. 1:00 1029 + 0,4
Mi, 14.11. 19:00 1029 + 0,5
Mi, 14.11. 13:00 1028 + 1,1
Mi, 14.11. 7:00 1025 + 1,4
Mi, 14.11. 1:00 1022 + 0,8
Di, 13.11. 19:00 1020 + 1,3
Ortszeit Luftdruck NN (hPa) Tendenz (hPa in 3 Std.)
Do, 15.11. 14:00 1031 - 0,1
Do, 15.11. 13:30 1031 0,0
Do, 15.11. 13:20 1031 keine Meldung
Do, 15.11. 13:10 1031 keine Meldung
Do, 15.11. 13:00 1031 + 0,2
Do, 15.11. 12:50 1031 keine Meldung
Do, 15.11. 12:30 1031 + 0,4
Do, 15.11. 12:00 1031 + 0,6
Do, 15.11. 11:30 1031 + 0,8
Do, 15.11. 11:00 1031 + 1,0
Do, 15.11. 10:30 1031 + 1,1
Ortszeit Schneehöhe (cm)
Do, 15.11. 13:00 -
Do, 15.11. 7:00 -
Do, 15.11. 1:00 -
Mi, 14.11. 19:00 -
Mi, 14.11. 13:00 -
Mi, 14.11. 7:00 -
Mi, 14.11. 1:00 -
Di, 13.11. 19:00 -
Ortszeit Schneehöhe (cm)
Do, 15.11. 14:00 -
Do, 15.11. 13:30 -
Do, 15.11. 13:20 -
Do, 15.11. 13:10 -
Do, 15.11. 13:00 -
Do, 15.11. 12:50 -
Do, 15.11. 12:30 -
Do, 15.11. 12:00 -
Do, 15.11. 11:30 -
Do, 15.11. 11:00 -
Do, 15.11. 10:30 -
Link zu dieser Seite / Seite empfehlen

Das Wetter in ...